Terminal Aerodrome Forecast
Issued by NWS Wilmington, OH

Current Version | Previous Version | Graphics & Text | Print | Product List | Glossary On
Versions: 1 2 3 4 5 6 7 8 9 10 11 12 13 14 15 16 17 18 19 20 21 22 23
000
FTUS41 KILN 161456 AAA
TAFCVG
TAF AMD
KCVG 161456Z 1615/1718 28006KT P6SM OVC060
     FM162100 25006KT P6SM SCT200
     FM170000 19004KT P6SM BKN200
     FM170900 21007KT P6SM SCT150=

USA.gov is the U.S. government's official web portal to all federal, state and local government web resources and services.